West Plains, Missouri
Current Conditions -  °F | °C
As of 8:03 PM on Friday 21 Nov 2014 (Local Time) from KUNO Reporting Station
Haze Haze  
Wind Chill: 31°   Ceiling: 200
Heat Index: 38°   Visibility: 0.75mi
Dew Point: 37°   Wind: 9mph
Humidity: 97%   Direction: 130°SE
Pressure: 30.24"   Gusts: NA
Location:  36.73°N, 91.85°W
Report Text: KUNO 220203Z AUTO 13008KT 3/4SM BR VV002 03/03 A3024 RMK AO2 T00330028
Loading
Personal Weather Stations






























Interactive Weather Map New forecast layout! Learn more

10-Day Weather Forecast

Advertisements
Track Severe Weather on mobile